Terminal Aerodrome Forecast
Issued by NWS

Home | Current Version | Previous Version | Graphics & Text | Print | Product List | Glossary On
Versions: 1 2 3 4 5 6 7 8 9 10 11 12 13 14 15 16 17 18
000
FTUS42 KMHX 250500
TAFPGV
TAF
KPGV 250521Z 2506/2606 23005KT P6SM BKN100
     FM250800 21003KT 2SM BR VCSH OVC007
     FM251400 33007KT 5SM BR VCSH OVC015
     FM251800 35004KT 4SM -RA BR OVC010
      AMD LTD TO CLD VIS AND WIND=

USA.gov is the U.S. government's official web portal to all federal, state and local government web resources and services.